createdAt,value
2018-09-17T00:00:34.175Z,77.50
2018-09-17T00:03:03.645Z,77.50
2018-09-17T00:05:34.643Z,77.80
2018-09-17T00:08:04.016Z,77.80
2018-09-17T00:10:33.536Z,78.00
2018-09-17T00:13:04.142Z,78.20
2018-09-17T00:15:34.184Z,78.40
2018-09-17T00:18:05.402Z,78.50
2018-09-17T00:20:35.066Z,78.70
2018-09-17T00:23:04.584Z,78.80
2018-09-17T00:25:34.767Z,79.10
2018-09-17T00:28:04.504Z,79.20
2018-09-17T00:30:34.087Z,79.20
2018-09-17T00:33:03.784Z,79.30
2018-09-17T00:35:33.608Z,79.40
2018-09-17T00:38:04.110Z,79.50
2018-09-17T00:40:39.972Z,79.60
2018-09-17T00:43:14.332Z,79.60
2018-09-17T00:45:43.904Z,79.60
2018-09-17T00:48:13.612Z,79.80
2018-09-17T00:50:47.500Z,79.90
2018-09-17T00:53:23.942Z,80.00
2018-09-17T00:55:53.368Z,80.10
2018-09-17T00:58:23.031Z,80.10
2018-09-17T01:00:52.700Z,80.10
2018-09-17T01:03:23.084Z,80.30
2018-09-17T01:05:53.241Z,80.40
2018-09-17T01:08:23.395Z,80.60
2018-09-17T01:10:52.907Z,80.70
2018-09-17T01:13:23.151Z,80.60
2018-09-17T01:15:52.734Z,80.70
2018-09-17T01:18:22.281Z,80.80
2018-09-17T01:20:54.463Z,80.60
2018-09-17T01:23:25.543Z,80.70
2018-09-17T01:25:55.145Z,80.80
2018-09-17T01:28:24.621Z,80.80
2018-09-17T01:30:54.301Z,80.80
2018-09-17T01:33:24.987Z,80.90
2018-09-17T01:35:54.538Z,81.10
2018-09-17T01:38:26.005Z,81.10
2018-09-17T01:40:55.569Z,81.20
2018-09-17T01:43:30.073Z,81.20
2018-09-17T01:45:59.957Z,81.20
2018-09-17T01:48:29.576Z,81.20
2018-09-17T01:50:59.285Z,81.20
2018-09-17T01:53:28.956Z,81.20
2018-09-17T01:55:58.720Z,81.20
2018-09-17T01:58:28.353Z,81.20
2018-09-17T02:00:58.096Z,81.20
2018-09-17T02:03:27.705Z,81.20
2018-09-17T02:05:57.281Z,81.30
2018-09-17T02:08:27.807Z,81.20
2018-09-17T02:11:02.675Z,81.20
2018-09-17T02:13:39.104Z,81.20
2018-09-17T02:16:08.776Z,81.30
2018-09-17T02:18:39.489Z,81.30
2018-09-17T02:21:11.777Z,81.30
2018-09-17T02:23:41.779Z,81.30
2018-09-17T02:26:14.837Z,81.20
2018-09-17T02:28:49.900Z,81.30
2018-09-17T02:31:19.730Z,81.40
2018-09-17T02:33:49.513Z,81.50
2018-09-17T02:36:19.178Z,81.40
2018-09-17T02:38:49.405Z,81.40
2018-09-17T02:41:19.581Z,81.40
2018-09-17T02:43:49.388Z,81.30
2018-09-17T02:46:19.231Z,81.30
2018-09-17T02:48:49.055Z,81.50
2018-09-17T02:51:27.324Z,81.40
2018-09-17T02:53:57.153Z,81.40
2018-09-17T02:56:27.862Z,81.60
2018-09-17T02:58:57.643Z,81.60
2018-09-17T03:01:33.043Z,81.50
2018-09-17T03:04:02.653Z,81.40
2018-09-17T03:06:32.343Z,81.20
2018-09-17T03:09:01.900Z,81.30
2018-09-17T03:11:31.481Z,81.40
2018-09-17T03:14:01.756Z,81.50
2018-09-17T03:16:31.512Z,81.50
2018-09-17T03:19:01.084Z,81.60
2018-09-17T03:21:30.800Z,81.70
2018-09-17T03:24:00.381Z,81.90
2018-09-17T03:26:30.370Z,81.80
2018-09-17T03:29:01.994Z,81.70
2018-09-17T03:31:31.735Z,81.70
2018-09-17T03:34:01.473Z,81.50
2018-09-17T03:36:31.361Z,81.50
2018-09-17T03:39:01.165Z,81.50
2018-09-17T03:41:30.624Z,81.50
2018-09-17T03:44:00.585Z,81.60
2018-09-17T03:46:30.906Z,81.60
2018-09-17T03:49:00.672Z,81.60
2018-09-17T03:51:30.342Z,81.60
2018-09-17T03:54:00.235Z,81.70
2018-09-17T03:56:36.781Z,81.70
2018-09-17T03:59:06.474Z,81.70
2018-09-17T04:01:36.190Z,81.60
2018-09-17T04:04:05.666Z,81.70
2018-09-17T04:06:35.311Z,82.50
2018-09-17T04:09:07.483Z,81.70
2018-09-17T04:11:37.870Z,81.60
2018-09-17T04:14:08.979Z,81.70
2018-09-17T04:16:39.179Z,81.70
2018-09-17T04:19:11.395Z,81.70
2018-09-17T04:21:41.269Z,81.70
2018-09-17T04:24:12.326Z,81.50
2018-09-17T04:26:41.879Z,81.70
2018-09-17T04:29:11.624Z,81.50
2018-09-17T04:31:41.392Z,81.60
2018-09-17T04:34:14.036Z,81.60
2018-09-17T04:36:43.645Z,81.70
2018-09-17T04:39:14.948Z,81.60
2018-09-17T04:41:45.282Z,81.60
2018-09-17T04:44:15.583Z,81.70
2018-09-17T04:46:50.004Z,81.80
2018-09-17T04:49:20.346Z,81.80
2018-09-17T04:51:50.553Z,81.90
2018-09-17T04:54:22.267Z,81.90
2018-09-17T04:56:52.078Z,82.00
2018-09-17T04:59:21.876Z,82.10
2018-09-17T05:01:51.610Z,82.10
2018-09-17T05:04:21.247Z,82.10
2018-09-17T05:06:51.060Z,81.90
2018-09-17T05:09:22.697Z,82.00
2018-09-17T05:11:52.672Z,81.90
2018-09-17T05:14:22.339Z,82.00
2018-09-17T05:16:51.840Z,82.10
2018-09-17T05:19:21.590Z,82.10
2018-09-17T05:21:52.225Z,82.00
2018-09-17T05:24:22.197Z,82.20
2018-09-17T05:26:51.800Z,82.30
2018-09-17T05:29:21.518Z,82.40
2018-09-17T05:31:51.325Z,83.10
2018-09-17T05:34:21.483Z,82.90
2018-09-17T05:36:51.516Z,83.30
2018-09-17T05:39:21.077Z,83.30
2018-09-17T05:41:50.651Z,83.30
2018-09-17T05:44:22.186Z,83.20
2018-09-17T05:46:51.792Z,83.30
2018-09-17T05:49:21.482Z,83.40
2018-09-17T05:51:51.202Z,83.50
2018-09-17T05:54:21.559Z,83.40
2018-09-17T05:56:52.184Z,84.20
2018-09-17T05:59:22.378Z,83.40
2018-09-17T06:01:52.773Z,83.50
2018-09-17T06:04:22.666Z,84.00
2018-09-17T06:06:53.356Z,83.70
2018-09-17T06:09:23.807Z,84.80
2018-09-17T06:11:53.447Z,84.20
2018-09-17T06:14:23.387Z,84.40
2018-09-17T06:16:53.698Z,84.40
2018-09-17T06:19:23.580Z,84.60
2018-09-17T06:21:53.293Z,84.60
2018-09-17T06:24:24.854Z,84.70
2018-09-17T06:26:54.403Z,84.80
2018-09-17T06:29:24.132Z,84.70
2018-09-17T06:31:54.708Z,84.90
2018-09-17T06:34:24.557Z,85.00
2018-09-17T06:39:24.592Z,85.00
2018-09-17T06:41:54.937Z,85.10
2018-09-17T06:44:24.667Z,85.30
2018-09-17T06:46:59.057Z,85.30
2018-09-17T06:49:28.679Z,85.40
2018-09-17T06:51:59.095Z,85.60
2018-09-17T06:54:29.345Z,85.60
2018-09-17T06:56:58.956Z,85.60
2018-09-17T06:59:29.803Z,85.60
2018-09-17T07:02:00.748Z,85.70
2018-09-17T07:04:30.439Z,85.80
2018-09-17T07:07:01.403Z,85.80
2018-09-17T07:09:35.543Z,85.90
2018-09-17T07:12:05.328Z,85.90
2018-09-17T07:14:35.238Z,85.90
2018-09-17T07:17:05.068Z,86.00
2018-09-17T07:19:34.786Z,86.00
2018-09-17T07:22:04.378Z,86.10
2018-09-17T07:24:34.590Z,86.20
2018-09-17T07:27:04.801Z,86.30
2018-09-17T07:29:35.485Z,86.30
2018-09-17T07:32:04.972Z,86.40
2018-09-17T07:34:34.980Z,86.50
2018-09-17T07:37:04.694Z,86.50
2018-09-17T07:39:34.255Z,86.50
2018-09-17T07:42:04.289Z,86.50
2018-09-17T07:44:33.892Z,86.50
2018-09-17T07:47:04.103Z,86.30
2018-09-17T07:49:33.615Z,86.50
2018-09-17T07:52:03.167Z,86.50
2018-09-17T07:54:32.799Z,86.60
2018-09-17T07:57:02.342Z,86.60
2018-09-17T07:59:33.549Z,86.50
2018-09-17T08:02:03.033Z,86.50
2018-09-17T08:04:32.668Z,86.20
2018-09-17T08:07:02.255Z,86.20
2018-09-17T08:09:32.219Z,86.10
2018-09-17T08:12:01.767Z,86.10
2018-09-17T08:14:31.397Z,86.10
2018-09-17T08:17:01.597Z,85.80
2018-09-17T08:19:32.238Z,85.60
2018-09-17T08:22:01.912Z,85.60
2018-09-17T08:24:31.778Z,85.50
2018-09-17T08:27:01.393Z,85.40
2018-09-17T08:29:31.098Z,85.30
2018-09-17T08:32:01.664Z,85.10
2018-09-17T08:34:31.129Z,84.80
2018-09-17T08:37:01.728Z,84.60
2018-09-17T08:39:31.168Z,84.40
2018-09-17T08:42:01.468Z,84.30
2018-09-17T08:44:31.247Z,84.10
2018-09-17T08:47:01.640Z,83.90
2018-09-17T08:49:31.557Z,83.70
2018-09-17T08:52:01.072Z,83.40
2018-09-17T08:54:30.932Z,83.10
2018-09-17T08:57:00.508Z,83.70
2018-09-17T08:59:35.805Z,82.50
2018-09-17T09:02:10.592Z,82.10
2018-09-17T09:04:50.736Z,81.70
2018-09-17T09:07:26.060Z,81.40
2018-09-17T09:10:01.378Z,81.10
2018-09-17T09:12:36.564Z,81.50
2018-09-17T09:15:11.399Z,80.40
2018-09-17T09:17:41.262Z,80.20
2018-09-17T09:20:11.091Z,79.90
2018-09-17T09:22:40.555Z,79.40
2018-09-17T09:25:10.247Z,78.90
2018-09-17T09:27:40.697Z,78.70
2018-09-17T09:30:11.027Z,78.20
2018-09-17T09:32:40.796Z,77.80
2018-09-17T09:35:10.991Z,77.30
2018-09-17T09:37:41.441Z,77.10
2018-09-17T09:40:11.090Z,76.90
2018-09-17T09:42:40.934Z,76.50
2018-09-17T09:45:10.793Z,76.10
2018-09-17T09:47:40.968Z,75.40
2018-09-17T09:50:14.448Z,74.70
2018-09-17T09:52:51.080Z,74.40
2018-09-17T09:55:20.883Z,73.80
2018-09-17T09:57:50.631Z,73.30
2018-09-17T10:00:25.485Z,72.60
2018-09-17T10:03:05.917Z,72.00
2018-09-17T10:05:36.067Z,70.90
2018-09-17T10:08:05.823Z,70.50
2018-09-17T10:10:40.490Z,69.70
2018-09-17T10:13:15.125Z,68.90
2018-09-17T10:15:50.844Z,68.50
2018-09-17T10:18:25.970Z,68.20
2018-09-17T10:20:56.161Z,67.10
2018-09-17T10:23:25.714Z,66.20
2018-09-17T10:25:55.612Z,65.30
2018-09-17T10:28:25.389Z,64.50
2018-09-17T10:30:55.052Z,63.80
2018-09-17T10:33:25.592Z,63.20
2018-09-17T10:35:55.678Z,62.50
2018-09-17T10:38:26.202Z,61.70
2018-09-17T10:40:56.816Z,61.20
2018-09-17T10:43:26.547Z,60.50
2018-09-17T10:45:56.622Z,60.00
2018-09-17T10:48:26.689Z,59.60
2018-09-17T10:50:57.073Z,59.30
2018-09-17T10:53:26.650Z,58.60
2018-09-17T10:55:56.805Z,58.00
2018-09-17T10:58:26.959Z,57.20
2018-09-17T11:00:56.463Z,56.40
2018-09-17T11:03:26.168Z,55.80
2018-09-17T11:05:55.634Z,55.50
2018-09-17T11:08:25.635Z,55.00
2018-09-17T11:10:56.009Z,54.40
2018-09-17T11:13:26.085Z,53.60
2018-09-17T11:15:56.459Z,52.80
2018-09-17T11:18:25.928Z,52.10
2018-09-17T11:20:55.692Z,51.80
2018-09-17T11:23:29.104Z,51.80
2018-09-17T11:26:02.998Z,51.70
2018-09-17T11:28:32.455Z,51.20
2018-09-17T11:31:02.141Z,50.60
2018-09-17T11:33:32.596Z,49.90
2018-09-17T11:36:02.035Z,49.60
2018-09-17T11:38:32.798Z,49.10
2018-09-17T11:41:02.270Z,48.60
2018-09-17T11:43:31.744Z,48.40
2018-09-17T11:46:01.438Z,48.20
2018-09-17T11:48:30.968Z,48.10
2018-09-17T11:51:00.904Z,47.80
2018-09-17T11:53:31.468Z,47.50
2018-09-17T11:56:01.371Z,47.20
2018-09-17T11:58:30.922Z,46.90
2018-09-17T12:01:05.692Z,46.50
2018-09-17T12:03:40.893Z,45.90
2018-09-17T12:06:11.051Z,45.80
2018-09-17T12:08:40.857Z,45.80
2018-09-17T12:11:11.149Z,45.60
2018-09-17T12:13:41.295Z,45.50
2018-09-17T12:16:11.691Z,45.00
2018-09-17T12:18:41.879Z,44.60
2018-09-17T12:21:11.525Z,44.10
2018-09-17T12:23:41.320Z,43.80
2018-09-17T12:26:10.830Z,43.50
2018-09-17T12:28:40.977Z,43.10
2018-09-17T12:31:11.870Z,43.00
2018-09-17T12:33:42.362Z,43.20
2018-09-17T12:36:12.118Z,43.30
2018-09-17T12:38:41.605Z,43.40
2018-09-17T12:41:12.094Z,43.20
2018-09-17T12:43:42.006Z,43.00
2018-09-17T12:46:14.819Z,42.90
2018-09-17T12:48:44.597Z,42.60
2018-09-17T12:51:14.200Z,42.20
2018-09-17T12:53:43.740Z,42.00
2018-09-17T12:56:13.976Z,41.80
2018-09-17T12:58:43.527Z,41.80
2018-09-17T13:01:13.717Z,41.60
2018-09-17T13:03:43.885Z,41.00
2018-09-17T13:06:13.684Z,40.60
2018-09-17T13:08:43.806Z,40.60
2018-09-17T13:11:14.135Z,40.70
2018-09-17T13:13:44.465Z,40.60
2018-09-17T13:16:14.021Z,40.10
2018-09-17T13:18:43.731Z,39.80
2018-09-17T13:21:14.139Z,39.50
2018-09-17T13:23:44.836Z,39.30
2018-09-17T13:26:14.507Z,39.00
2018-09-17T13:28:44.330Z,38.70
2018-09-17T13:31:13.961Z,38.70
2018-09-17T13:33:44.559Z,38.40
2018-09-17T13:36:15.723Z,37.90
2018-09-17T13:38:46.303Z,37.80
2018-09-17T13:41:17.407Z,37.50
2018-09-17T13:43:47.304Z,37.00
2018-09-17T13:46:16.886Z,36.60
2018-09-17T13:48:47.568Z,36.40
2018-09-17T13:51:18.632Z,36.30
2018-09-17T13:53:48.603Z,36.10
2018-09-17T13:56:18.217Z,36.60
2018-09-17T13:58:47.884Z,35.60
2018-09-17T14:01:17.565Z,35.20
2018-09-17T14:03:47.354Z,35.10
2018-09-17T14:06:16.902Z,34.90
2018-09-17T14:08:46.674Z,33.90
2018-09-17T14:11:16.190Z,33.70
2018-09-17T14:13:46.019Z,33.50
2018-09-17T14:16:19.778Z,33.40
2018-09-17T14:18:50.228Z,33.40
2018-09-17T14:21:20.447Z,33.70
2018-09-17T14:23:55.598Z,33.80
2018-09-17T14:26:26.796Z,33.80
2018-09-17T14:28:57.627Z,33.90
2018-09-17T14:31:33.350Z,33.90
2018-09-17T14:34:02.855Z,33.80
2018-09-17T14:36:32.548Z,33.70
2018-09-17T14:39:02.044Z,34.10
2018-09-17T14:41:32.266Z,33.30
2018-09-17T14:44:01.991Z,33.20
2018-09-17T14:46:33.247Z,33.00
2018-09-17T14:49:03.371Z,32.90
2018-09-17T14:51:33.440Z,33.20
2018-09-17T14:54:03.208Z,32.90
2018-09-17T14:56:34.932Z,32.70
2018-09-17T14:59:05.273Z,32.70
2018-09-17T15:01:35.048Z,32.90
2018-09-17T15:04:04.759Z,33.20
2018-09-17T15:06:34.489Z,32.80
2018-09-17T15:09:05.060Z,32.70
2018-09-17T15:11:35.612Z,32.90
2018-09-17T15:14:06.643Z,33.10
2018-09-17T15:16:37.740Z,33.00
2018-09-17T15:19:08.094Z,32.60
2018-09-17T15:21:41.221Z,32.50
2018-09-17T15:24:12.016Z,32.60
2018-09-17T15:26:42.906Z,32.90
2018-09-17T15:29:12.649Z,33.10
2018-09-17T15:31:42.993Z,33.20
2018-09-17T15:34:12.788Z,33.30
2018-09-17T15:36:43.336Z,33.50
2018-09-17T15:39:14.216Z,33.90
2018-09-17T15:41:44.424Z,34.30
2018-09-17T15:44:15.056Z,34.60
2018-09-17T15:46:44.891Z,35.30
2018-09-17T15:49:14.539Z,35.60
2018-09-17T15:51:44.093Z,35.90
2018-09-17T15:54:14.457Z,36.50
2018-09-17T15:56:43.963Z,37.00
2018-09-17T15:59:13.592Z,37.80
2018-09-17T16:01:43.909Z,38.50
2018-09-17T16:04:14.338Z,39.30
2018-09-17T16:06:44.805Z,39.80
2018-09-17T16:09:14.393Z,40.20
2018-09-17T16:11:44.947Z,40.70
2018-09-17T16:14:15.337Z,41.30
2018-09-17T16:16:44.852Z,41.40
2018-09-17T16:19:15.683Z,41.90
2018-09-17T16:21:49.591Z,42.30
2018-09-17T16:24:19.826Z,42.80
2018-09-17T16:26:49.479Z,43.30
2018-09-17T16:29:19.169Z,43.80
2018-09-17T16:31:50.588Z,44.30
2018-09-17T16:34:20.932Z,44.70
2018-09-17T16:36:55.600Z,45.20
2018-09-17T16:39:26.445Z,45.60
2018-09-17T16:41:56.090Z,46.00
2018-09-17T16:44:26.485Z,46.40
2018-09-17T16:46:56.380Z,47.10
2018-09-17T16:49:26.736Z,47.70
2018-09-17T16:51:58.913Z,48.00
2018-09-17T16:54:28.691Z,48.40
2018-09-17T16:56:58.527Z,49.00
2018-09-17T16:59:29.173Z,49.50
2018-09-17T17:01:59.748Z,50.10
2018-09-17T17:04:29.551Z,50.60
2018-09-17T17:06:59.485Z,50.90
2018-09-17T17:09:29.174Z,51.30
2018-09-17T17:12:00.039Z,51.60
2018-09-17T17:14:30.703Z,52.00
2018-09-17T17:17:00.345Z,52.50
2018-09-17T17:19:30.759Z,52.90
2018-09-17T17:22:00.256Z,53.20
2018-09-17T17:24:30.474Z,53.60
2018-09-17T17:27:00.297Z,53.80
2018-09-17T17:29:30.036Z,54.10
2018-09-17T17:31:59.704Z,54.50
2018-09-17T17:34:29.382Z,54.70
2018-09-17T17:37:07.782Z,55.00
2018-09-17T17:39:38.484Z,55.30
2018-09-17T17:42:08.192Z,55.60
2018-09-17T17:44:38.518Z,55.80
2018-09-17T17:47:08.910Z,56.10
2018-09-17T17:49:38.628Z,56.40
2018-09-17T17:52:08.261Z,56.70
2018-09-17T17:54:39.481Z,56.90
2018-09-17T17:57:09.059Z,57.20
2018-09-17T17:59:38.804Z,57.40
2018-09-17T18:02:09.340Z,57.60
2018-09-17T18:05:00.979Z,57.80
2018-09-17T18:07:32.901Z,58.10
2018-09-17T18:10:12.452Z,58.30
2018-09-17T18:12:51.437Z,58.50
2018-09-17T18:15:21.318Z,58.80
2018-09-17T18:17:54.841Z,59.30
2018-09-17T18:20:25.280Z,58.90
2018-09-17T18:22:55.590Z,59.10
2018-09-17T18:25:26.725Z,59.20
2018-09-17T18:27:56.443Z,59.40
2018-09-17T18:30:26.134Z,59.60
2018-09-17T18:32:57.089Z,59.90
2018-09-17T18:35:27.745Z,60.30
2018-09-17T18:38:02.776Z,60.40
2018-09-17T18:40:33.397Z,60.70
2018-09-17T18:43:04.708Z,60.90
2018-09-17T18:45:34.285Z,61.10
2018-09-17T18:48:08.370Z,61.30
2018-09-17T18:50:37.941Z,61.50
2018-09-17T18:53:07.765Z,61.60
2018-09-17T18:55:37.293Z,61.80
2018-09-17T18:58:08.118Z,62.10
2018-09-17T19:00:38.380Z,62.30
2018-09-17T19:03:15.131Z,62.50
2018-09-17T19:05:44.973Z,62.70
2018-09-17T19:08:15.908Z,62.90
2018-09-17T19:10:45.963Z,63.10
2018-09-17T19:13:16.146Z,63.40
2018-09-17T19:15:52.139Z,63.50
2018-09-17T19:18:21.979Z,63.60
2018-09-17T19:20:53.208Z,63.80
2018-09-17T19:23:28.653Z,64.00
2018-09-17T19:25:58.389Z,64.10
2018-09-17T19:28:33.926Z,64.20
2018-09-17T19:31:03.866Z,64.30
2018-09-17T19:33:33.720Z,64.50
2018-09-17T19:36:06.796Z,64.60
2018-09-17T19:39:43.423Z,64.80
2018-09-17T19:42:14.579Z,65.00
2018-09-17T19:44:49.901Z,64.60
2018-09-17T19:47:24.775Z,65.00
2018-09-17T19:49:55.342Z,65.20
2018-09-17T19:52:25.589Z,65.50
2018-09-17T19:54:55.303Z,66.50
2018-09-17T19:57:30.207Z,65.90
2018-09-17T20:00:00.380Z,66.00
2018-09-17T20:02:30.381Z,66.20
2018-09-17T20:05:05.554Z,66.40
2018-09-17T20:07:35.095Z,66.50
2018-09-17T20:10:04.923Z,66.70
2018-09-17T20:12:34.413Z,67.60
2018-09-17T20:15:03.843Z,67.10
2018-09-17T20:17:33.565Z,68.00
2018-09-17T20:20:03.929Z,67.30
2018-09-17T20:22:33.695Z,68.20
2018-09-17T20:25:03.682Z,67.50
2018-09-17T20:27:33.241Z,67.60
2018-09-17T20:30:03.565Z,67.70
2018-09-17T20:32:34.915Z,67.80
2018-09-17T20:35:04.998Z,67.80
2018-09-17T20:37:35.276Z,68.10
2018-09-17T20:40:04.975Z,68.30
2018-09-17T20:42:35.870Z,68.40
2018-09-17T20:45:05.531Z,68.60
2018-09-17T20:47:36.073Z,68.60
2018-09-17T20:50:06.009Z,68.70
2018-09-17T20:52:36.860Z,68.80
2018-09-17T20:55:06.440Z,69.00
2018-09-17T20:57:36.695Z,69.00
2018-09-17T21:00:06.436Z,69.10
2018-09-17T21:02:37.129Z,69.30
2018-09-17T21:05:06.962Z,69.30
2018-09-17T21:07:37.011Z,69.60
2018-09-17T21:10:06.782Z,69.60
2018-09-17T21:12:37.818Z,69.70
2018-09-17T21:15:07.459Z,69.70
2018-09-17T21:17:37.379Z,69.80
2018-09-17T21:20:07.435Z,69.90
2018-09-17T21:22:37.147Z,69.90
2018-09-17T21:25:06.965Z,70.00
2018-09-17T21:27:36.605Z,70.10
2018-09-17T21:30:06.855Z,70.10
2018-09-17T21:32:36.303Z,70.30
2018-09-17T21:35:06.200Z,70.30
2018-09-17T21:37:35.944Z,70.40
2018-09-17T21:40:05.728Z,70.40
2018-09-17T21:42:35.265Z,70.50
2018-09-17T21:45:06.229Z,70.50
2018-09-17T21:47:35.943Z,70.60
2018-09-17T21:50:06.345Z,70.80
2018-09-17T21:52:37.187Z,70.90
2018-09-17T21:55:06.755Z,70.90
2018-09-17T21:57:36.933Z,70.90
2018-09-17T22:00:07.312Z,71.00
2018-09-17T22:02:37.224Z,71.10
2018-09-17T22:05:07.162Z,71.20
2018-09-17T22:07:37.392Z,71.20
2018-09-17T22:10:07.168Z,71.40
2018-09-17T22:12:36.916Z,71.40
2018-09-17T22:15:06.572Z,71.50
2018-09-17T22:17:36.225Z,71.50
2018-09-17T22:20:05.944Z,71.50
2018-09-17T22:22:36.518Z,71.90
2018-09-17T22:25:06.052Z,71.80
2018-09-17T22:27:35.427Z,71.90
2018-09-17T22:30:05.237Z,72.80
2018-09-17T22:32:34.772Z,71.90
2018-09-17T22:35:05.002Z,71.90
2018-09-17T22:37:34.515Z,72.00
2018-09-17T22:40:04.277Z,72.50
2018-09-17T22:42:34.449Z,72.10
2018-09-17T22:45:03.945Z,72.00
2018-09-17T22:47:33.705Z,72.10
2018-09-17T22:50:04.624Z,72.10
2018-09-17T22:52:34.129Z,72.10
2018-09-17T22:55:04.337Z,72.10
2018-09-17T22:57:33.844Z,72.30
2018-09-17T23:00:03.425Z,72.50
2018-09-17T23:02:33.051Z,72.40
2018-09-17T23:05:02.619Z,72.50
2018-09-17T23:07:32.007Z,72.70
2018-09-17T23:10:01.586Z,72.80
2018-09-17T23:12:31.455Z,72.80
2018-09-17T23:15:01.949Z,73.00
2018-09-17T23:17:31.637Z,73.00
2018-09-17T23:20:01.259Z,73.00
2018-09-17T23:22:30.834Z,73.10
2018-09-17T23:25:00.418Z,73.20
2018-09-17T23:27:30.160Z,73.30
2018-09-17T23:29:59.945Z,73.30
2018-09-17T23:32:29.512Z,73.40
2018-09-17T23:34:58.994Z,73.40
2018-09-17T23:37:28.548Z,73.30
2018-09-17T23:39:58.230Z,73.30
2018-09-17T23:42:28.502Z,73.20
2018-09-17T23:44:59.739Z,73.20
2018-09-17T23:47:29.336Z,73.30
2018-09-17T23:49:59.414Z,73.30
2018-09-17T23:52:29.138Z,73.30
2018-09-17T23:54:58.604Z,73.40
2018-09-17T23:57:33.378Z,73.50
